sensor_id;sensor_type;location;lat;lon;timestamp;P1;durP1;ratioP1;P2;durP2;ratioP2
41514;SDS011;27247;48.020;16.720;2024-03-17T00:01:05;1.90;;;0.63;;
41514;SDS011;27247;48.020;16.720;2024-03-17T00:05:15;0.52;;;0.52;;
41514;SDS011;27247;48.020;16.720;2024-03-17T00:09:28;0.60;;;0.60;;
41514;SDS011;27247;48.020;16.720;2024-03-17T00:13:39;0.77;;;0.60;;
41514;SDS011;27247;48.020;16.720;2024-03-17T00:17:49;0.63;;;0.50;;
41514;SDS011;27247;48.020;16.720;2024-03-17T00:21:59;2.15;;;0.52;;
41514;SDS011;27247;48.020;16.720;2024-03-17T00:26:10;0.43;;;0.40;;
41514;SDS011;27247;48.020;16.720;2024-03-17T00:30:20;0.77;;;0.70;;
41514;SDS011;27247;48.020;16.720;2024-03-17T00:34:31;1.02;;;0.63;;
41514;SDS011;27247;48.020;16.720;2024-03-17T00:38:42;1.42;;;0.60;;
41514;SDS011;27247;48.020;16.720;2024-03-17T00:42:52;1.70;;;0.73;;
41514;SDS011;27247;48.020;16.720;2024-03-17T00:47:04;1.42;;;1.00;;
41514;SDS011;27247;48.020;16.720;2024-03-17T00:51:14;0.80;;;0.80;;
41514;SDS011;27247;48.020;16.720;2024-03-17T00:55:25;2.13;;;1.27;;
41514;SDS011;27247;48.020;16.720;2024-03-17T00:59:35;2.07;;;1.57;;
41514;SDS011;27247;48.020;16.720;2024-03-17T01:03:46;1.53;;;1.30;;
41514;SDS011;27247;48.020;16.720;2024-03-17T01:07:56;2.50;;;1.70;;
41514;SDS011;27247;48.020;16.720;2024-03-17T01:12:07;1.97;;;1.57;;
41514;SDS011;27247;48.020;16.720;2024-03-17T01:16:17;1.63;;;1.45;;
41514;SDS011;27247;48.020;16.720;2024-03-17T01:20:27;1.77;;;1.67;;
41514;SDS011;27247;48.020;16.720;2024-03-17T01:24:38;2.87;;;1.83;;
41514;SDS011;27247;48.020;16.720;2024-03-17T01:28:51;4.70;;;2.20;;
41514;SDS011;27247;48.020;16.720;2024-03-17T01:33:02;2.75;;;2.17;;
41514;SDS011;27247;48.020;16.720;2024-03-17T01:37:14;2.17;;;1.50;;
41514;SDS011;27247;48.020;16.720;2024-03-17T01:41:24;2.92;;;1.70;;
41514;SDS011;27247;48.020;16.720;2024-03-17T01:45:35;2.00;;;1.80;;
41514;SDS011;27247;48.020;16.720;2024-03-17T01:49:48;2.60;;;2.40;;
41514;SDS011;27247;48.020;16.720;2024-03-17T01:53:59;2.90;;;1.95;;
41514;SDS011;27247;48.020;16.720;2024-03-17T01:58:10;2.45;;;1.75;;
41514;SDS011;27247;48.020;16.720;2024-03-17T02:02:20;2.58;;;1.90;;
41514;SDS011;27247;48.020;16.720;2024-03-17T02:06:31;2.67;;;1.77;;
41514;SDS011;27247;48.020;16.720;2024-03-17T02:10:41;7.88;;;3.60;;
41514;SDS011;27247;48.020;16.720;2024-03-17T02:14:52;4.82;;;3.65;;
41514;SDS011;27247;48.020;16.720;2024-03-17T02:19:02;6.85;;;4.28;;
41514;SDS011;27247;48.020;16.720;2024-03-17T02:23:12;7.53;;;4.07;;
41514;SDS011;27247;48.020;16.720;2024-03-17T02:27:22;6.07;;;3.78;;
41514;SDS011;27247;48.020;16.720;2024-03-17T02:31:33;5.03;;;4.00;;
41514;SDS011;27247;48.020;16.720;2024-03-17T02:35:43;5.75;;;3.95;;
41514;SDS011;27247;48.020;16.720;2024-03-17T02:39:53;7.97;;;4.37;;
41514;SDS011;27247;48.020;16.720;2024-03-17T02:44:04;7.25;;;3.85;;
41514;SDS011;27247;48.020;16.720;2024-03-17T02:48:16;5.95;;;3.75;;
41514;SDS011;27247;48.020;16.720;2024-03-17T02:52:26;7.77;;;4.37;;
41514;SDS011;27247;48.020;16.720;2024-03-17T02:56:37;5.05;;;3.05;;
41514;SDS011;27247;48.020;16.720;2024-03-17T03:00:47;9.77;;;2.83;;
41514;SDS011;27247;48.020;16.720;2024-03-17T03:04:57;5.77;;;2.60;;
41514;SDS011;27247;48.020;16.720;2024-03-17T03:09:08;9.47;;;3.07;;
41514;SDS011;27247;48.020;16.720;2024-03-17T03:13:23;6.05;;;3.13;;
41514;SDS011;27247;48.020;16.720;2024-03-17T03:17:33;6.33;;;2.90;;
41514;SDS011;27247;48.020;16.720;2024-03-17T03:21:44;6.83;;;3.73;;
41514;SDS011;27247;48.020;16.720;2024-03-17T03:25:55;7.40;;;3.17;;
41514;SDS011;27247;48.020;16.720;2024-03-17T03:30:07;4.30;;;2.42;;
41514;SDS011;27247;48.020;16.720;2024-03-17T03:34:18;5.40;;;2.75;;
41514;SDS011;27247;48.020;16.720;2024-03-17T03:38:29;9.17;;;2.60;;
41514;SDS011;27247;48.020;16.720;2024-03-17T03:42:39;10.43;;;2.83;;
41514;SDS011;27247;48.020;16.720;2024-03-17T03:46:49;4.93;;;2.17;;
41514;SDS011;27247;48.020;16.720;2024-03-17T03:51:07;10.40;;;2.08;;
41514;SDS011;27247;48.020;16.720;2024-03-17T03:55:18;3.97;;;2.28;;
41514;SDS011;27247;48.020;16.720;2024-03-17T03:59:29;7.45;;;2.92;;
41514;SDS011;27247;48.020;16.720;2024-03-17T04:03:39;7.20;;;2.10;;
41514;SDS011;27247;48.020;16.720;2024-03-17T04:07:50;6.80;;;2.40;;
41514;SDS011;27247;48.020;16.720;2024-03-17T04:12:00;7.45;;;2.90;;
41514;SDS011;27247;48.020;16.720;2024-03-17T04:16:10;6.20;;;2.47;;
41514;SDS011;27247;48.020;16.720;2024-03-17T04:20:22;4.95;;;2.58;;
41514;SDS011;27247;48.020;16.720;2024-03-17T04:24:32;6.00;;;2.53;;
41514;SDS011;27247;48.020;16.720;2024-03-17T04:28:42;7.05;;;2.50;;
41514;SDS011;27247;48.020;16.720;2024-03-17T04:32:53;6.00;;;2.47;;
41514;SDS011;27247;48.020;16.720;2024-03-17T04:37:03;7.97;;;2.60;;
41514;SDS011;27247;48.020;16.720;2024-03-17T04:41:17;7.78;;;2.95;;
41514;SDS011;27247;48.020;16.720;2024-03-17T04:45:27;5.47;;;2.80;;
41514;SDS011;27247;48.020;16.720;2024-03-17T04:49:38;8.57;;;3.53;;
41514;SDS011;27247;48.020;16.720;2024-03-17T04:53:48;10.00;;;3.22;;
41514;SDS011;27247;48.020;16.720;2024-03-17T04:57:59;9.50;;;3.40;;
41514;SDS011;27247;48.020;16.720;2024-03-17T05:02:09;4.03;;;3.07;;
41514;SDS011;27247;48.020;16.720;2024-03-17T05:06:19;12.85;;;5.43;;
41514;SDS011;27247;48.020;16.720;2024-03-17T05:10:30;21.65;;;9.70;;
41514;SDS011;27247;48.020;16.720;2024-03-17T05:14:40;8.83;;;5.40;;
41514;SDS011;27247;48.020;16.720;2024-03-17T05:18:51;6.55;;;3.80;;
41514;SDS011;27247;48.020;16.720;2024-03-17T05:23:01;7.67;;;3.63;;
41514;SDS011;27247;48.020;16.720;2024-03-17T05:27:11;7.30;;;3.77;;
41514;SDS011;27247;48.020;16.720;2024-03-17T05:31:22;4.82;;;3.30;;
41514;SDS011;27247;48.020;16.720;2024-03-17T05:35:32;9.65;;;3.08;;
41514;SDS011;27247;48.020;16.720;2024-03-17T05:39:42;10.90;;;3.60;;
41514;SDS011;27247;48.020;16.720;2024-03-17T05:43:53;5.73;;;3.50;;
41514;SDS011;27247;48.020;16.720;2024-03-17T05:48:04;9.18;;;3.35;;
41514;SDS011;27247;48.020;16.720;2024-03-17T05:52:15;7.65;;;4.15;;
41514;SDS011;27247;48.020;16.720;2024-03-17T05:56:25;9.25;;;3.88;;
41514;SDS011;27247;48.020;16.720;2024-03-17T06:00:36;9.20;;;3.38;;
41514;SDS011;27247;48.020;16.720;2024-03-17T06:04:47;10.95;;;3.55;;
41514;SDS011;27247;48.020;16.720;2024-03-17T06:08:57;7.70;;;4.07;;
41514;SDS011;27247;48.020;16.720;2024-03-17T06:13:08;10.07;;;3.58;;
41514;SDS011;27247;48.020;16.720;2024-03-17T06:17:21;9.55;;;3.75;;
41514;SDS011;27247;48.020;16.720;2024-03-17T06:21:32;11.00;;;4.05;;
41514;SDS011;27247;48.020;16.720;2024-03-17T06:25:46;10.77;;;3.40;;
41514;SDS011;27247;48.020;16.720;2024-03-17T06:29:57;10.27;;;3.97;;
41514;SDS011;27247;48.020;16.720;2024-03-17T06:34:08;10.20;;;3.53;;
41514;SDS011;27247;48.020;16.720;2024-03-17T06:38:18;8.10;;;3.27;;
41514;SDS011;27247;48.020;16.720;2024-03-17T06:42:31;7.50;;;3.10;;
41514;SDS011;27247;48.020;16.720;2024-03-17T06:46:42;6.90;;;3.25;;
41514;SDS011;27247;48.020;16.720;2024-03-17T06:50:53;10.13;;;3.50;;
41514;SDS011;27247;48.020;16.720;2024-03-17T06:55:04;10.18;;;3.97;;
41514;SDS011;27247;48.020;16.720;2024-03-17T06:59:16;8.50;;;3.30;;
41514;SDS011;27247;48.020;16.720;2024-03-17T07:03:27;6.57;;;3.88;;
41514;SDS011;27247;48.020;16.720;2024-03-17T07:07:39;7.50;;;3.70;;
41514;SDS011;27247;48.020;16.720;2024-03-17T07:11:51;11.60;;;4.05;;
41514;SDS011;27247;48.020;16.720;2024-03-17T07:16:03;6.43;;;3.97;;
41514;SDS011;27247;48.020;16.720;2024-03-17T07:20:17;9.68;;;4.00;;
41514;SDS011;27247;48.020;16.720;2024-03-17T07:24:28;5.38;;;3.58;;
41514;SDS011;27247;48.020;16.720;2024-03-17T07:28:40;13.73;;;4.20;;
41514;SDS011;27247;48.020;16.720;2024-03-17T07:32:50;10.05;;;3.97;;
41514;SDS011;27247;48.020;16.720;2024-03-17T07:37:01;11.50;;;4.13;;
41514;SDS011;27247;48.020;16.720;2024-03-17T07:41:13;11.48;;;3.90;;
41514;SDS011;27247;48.020;16.720;2024-03-17T07:45:23;8.07;;;3.70;;
41514;SDS011;27247;48.020;16.720;2024-03-17T07:49:33;7.53;;;3.90;;
41514;SDS011;27247;48.020;16.720;2024-03-17T07:53:45;10.00;;;4.43;;
41514;SDS011;27247;48.020;16.720;2024-03-17T07:57:57;9.07;;;3.47;;
41514;SDS011;27247;48.020;16.720;2024-03-17T08:02:07;7.13;;;3.50;;
41514;SDS011;27247;48.020;16.720;2024-03-17T08:06:18;8.03;;;3.80;;
41514;SDS011;27247;48.020;16.720;2024-03-17T08:10:29;8.53;;;3.90;;
41514;SDS011;27247;48.020;16.720;2024-03-17T08:14:39;8.80;;;4.45;;
41514;SDS011;27247;48.020;16.720;2024-03-17T08:18:50;13.73;;;3.92;;
41514;SDS011;27247;48.020;16.720;2024-03-17T08:23:00;10.13;;;4.30;;
41514;SDS011;27247;48.020;16.720;2024-03-17T08:27:11;9.17;;;3.90;;
41514;SDS011;27247;48.020;16.720;2024-03-17T08:31:21;7.07;;;4.10;;
41514;SDS011;27247;48.020;16.720;2024-03-17T08:35:31;7.45;;;3.72;;
41514;SDS011;27247;48.020;16.720;2024-03-17T08:39:42;10.50;;;4.22;;
41514;SDS011;27247;48.020;16.720;2024-03-17T08:43:52;11.35;;;4.30;;
41514;SDS011;27247;48.020;16.720;2024-03-17T08:48:02;8.82;;;4.05;;
41514;SDS011;27247;48.020;16.720;2024-03-17T08:52:13;6.80;;;3.58;;
41514;SDS011;27247;48.020;16.720;2024-03-17T08:56:23;7.03;;;3.23;;
41514;SDS011;27247;48.020;16.720;2024-03-17T09:00:34;6.95;;;3.10;;
41514;SDS011;27247;48.020;16.720;2024-03-17T09:04:46;9.57;;;3.38;;
41514;SDS011;27247;48.020;16.720;2024-03-17T09:08:57;6.72;;;3.60;;
41514;SDS011;27247;48.020;16.720;2024-03-17T09:13:15;7.47;;;3.50;;
41514;SDS011;27247;48.020;16.720;2024-03-17T09:17:36;7.78;;;3.22;;
41514;SDS011;27247;48.020;16.720;2024-03-17T09:21:46;8.67;;;3.73;;
41514;SDS011;27247;48.020;16.720;2024-03-17T09:26:01;6.82;;;3.65;;
41514;SDS011;27247;48.020;16.720;2024-03-17T09:30:13;6.32;;;3.45;;
41514;SDS011;27247;48.020;16.720;2024-03-17T09:34:23;7.78;;;3.08;;
41514;SDS011;27247;48.020;16.720;2024-03-17T09:38:35;7.77;;;3.27;;
41514;SDS011;27247;48.020;16.720;2024-03-17T09:42:45;4.38;;;2.78;;
41514;SDS011;27247;48.020;16.720;2024-03-17T09:46:56;6.25;;;3.25;;
41514;SDS011;27247;48.020;16.720;2024-03-17T09:51:06;8.15;;;3.45;;
41514;SDS011;27247;48.020;16.720;2024-03-17T09:55:16;8.23;;;3.10;;
41514;SDS011;27247;48.020;16.720;2024-03-17T09:59:27;5.47;;;2.65;;
41514;SDS011;27247;48.020;16.720;2024-03-17T10:08:02;6.93;;;3.35;;
41514;SDS011;27247;48.020;16.720;2024-03-17T10:12:25;6.22;;;3.38;;
41514;SDS011;27247;48.020;16.720;2024-03-17T10:16:37;8.15;;;3.15;;
41514;SDS011;27247;48.020;16.720;2024-03-17T10:20:48;5.05;;;2.97;;
41514;SDS011;27247;48.020;16.720;2024-03-17T10:25:06;6.25;;;3.20;;
41514;SDS011;27247;48.020;16.720;2024-03-17T10:33:30;5.97;;;3.15;;
41514;SDS011;27247;48.020;16.720;2024-03-17T10:37:40;5.00;;;3.00;;
41514;SDS011;27247;48.020;16.720;2024-03-17T10:42:04;4.72;;;3.03;;
41514;SDS011;27247;48.020;16.720;2024-03-17T10:46:16;4.80;;;2.60;;
41514;SDS011;27247;48.020;16.720;2024-03-17T10:50:29;4.35;;;3.05;;
41514;SDS011;27247;48.020;16.720;2024-03-17T10:54:48;7.90;;;3.22;;
41514;SDS011;27247;48.020;16.720;2024-03-17T10:59:00;7.50;;;2.85;;
41514;SDS011;27247;48.020;16.720;2024-03-17T11:03:14;5.63;;;2.72;;
41514;SDS011;27247;48.020;16.720;2024-03-17T11:07:25;4.78;;;2.95;;
41514;SDS011;27247;48.020;16.720;2024-03-17T11:11:36;5.45;;;3.30;;
41514;SDS011;27247;48.020;16.720;2024-03-17T11:15:49;4.88;;;2.92;;
41514;SDS011;27247;48.020;16.720;2024-03-17T11:24:32;12.45;;;6.00;;
41514;SDS011;27247;48.020;16.720;2024-03-17T11:32:56;4.40;;;3.05;;
41514;SDS011;27247;48.020;16.720;2024-03-17T11:37:07;7.43;;;3.15;;
41514;SDS011;27247;48.020;16.720;2024-03-17T11:42:04;5.78;;;3.10;;
41514;SDS011;27247;48.020;16.720;2024-03-17T11:45:58;6.47;;;2.97;;
41514;SDS011;27247;48.020;16.720;2024-03-17T11:50:09;7.45;;;3.40;;
41514;SDS011;27247;48.020;16.720;2024-03-17T11:54:23;4.20;;;2.20;;
41514;SDS011;27247;48.020;16.720;2024-03-17T11:58:37;4.10;;;2.83;;
41514;SDS011;27247;48.020;16.720;2024-03-17T12:02:51;4.53;;;2.47;;
41514;SDS011;27247;48.020;16.720;2024-03-17T12:07:01;2.88;;;2.40;;
41514;SDS011;27247;48.020;16.720;2024-03-17T12:11:17;5.38;;;2.63;;
41514;SDS011;27247;48.020;16.720;2024-03-17T12:15:28;4.60;;;2.72;;
41514;SDS011;27247;48.020;16.720;2024-03-17T12:19:39;5.57;;;2.75;;
41514;SDS011;27247;48.020;16.720;2024-03-17T12:23:54;3.65;;;2.40;;
41514;SDS011;27247;48.020;16.720;2024-03-17T12:28:04;7.38;;;2.70;;
41514;SDS011;27247;48.020;16.720;2024-03-17T12:32:26;5.95;;;2.47;;
41514;SDS011;27247;48.020;16.720;2024-03-17T12:36:37;4.53;;;2.58;;
41514;SDS011;27247;48.020;16.720;2024-03-17T12:40:48;3.92;;;2.45;;
41514;SDS011;27247;48.020;16.720;2024-03-17T12:44:59;5.95;;;3.03;;
41514;SDS011;27247;48.020;16.720;2024-03-17T12:49:16;8.75;;;2.60;;
41514;SDS011;27247;48.020;16.720;2024-03-17T12:53:26;5.53;;;3.33;;
41514;SDS011;27247;48.020;16.720;2024-03-17T12:57:37;3.00;;;2.17;;
41514;SDS011;27247;48.020;16.720;2024-03-17T13:02:10;5.78;;;2.25;;
41514;SDS011;27247;48.020;16.720;2024-03-17T13:06:24;3.97;;;2.17;;
41514;SDS011;27247;48.020;16.720;2024-03-17T13:10:35;6.85;;;2.20;;
41514;SDS011;27247;48.020;16.720;2024-03-17T13:14:45;4.00;;;2.17;;
41514;SDS011;27247;48.020;16.720;2024-03-17T13:19:06;3.97;;;2.00;;
41514;SDS011;27247;48.020;16.720;2024-03-17T13:23:19;5.88;;;2.35;;
41514;SDS011;27247;48.020;16.720;2024-03-17T13:27:31;4.20;;;2.17;;
41514;SDS011;27247;48.020;16.720;2024-03-17T13:31:41;3.60;;;2.13;;
41514;SDS011;27247;48.020;16.720;2024-03-17T13:35:52;6.67;;;2.37;;
41514;SDS011;27247;48.020;16.720;2024-03-17T13:40:03;3.28;;;1.90;;
41514;SDS011;27247;48.020;16.720;2024-03-17T13:44:15;9.38;;;2.20;;
41514;SDS011;27247;48.020;16.720;2024-03-17T13:48:25;3.58;;;2.50;;
41514;SDS011;27247;48.020;16.720;2024-03-17T13:52:36;5.90;;;2.08;;
41514;SDS011;27247;48.020;16.720;2024-03-17T13:56:48;3.03;;;2.00;;
41514;SDS011;27247;48.020;16.720;2024-03-17T14:00:58;5.40;;;2.42;;
41514;SDS011;27247;48.020;16.720;2024-03-17T14:05:09;3.33;;;2.33;;
41514;SDS011;27247;48.020;16.720;2024-03-17T14:09:22;4.85;;;2.28;;
41514;SDS011;27247;48.020;16.720;2024-03-17T14:13:32;3.93;;;2.30;;
41514;SDS011;27247;48.020;16.720;2024-03-17T14:17:43;2.83;;;1.60;;
41514;SDS011;27247;48.020;16.720;2024-03-17T14:21:54;4.60;;;2.28;;
41514;SDS011;27247;48.020;16.720;2024-03-17T14:26:05;4.50;;;2.50;;
41514;SDS011;27247;48.020;16.720;2024-03-17T14:30:17;3.58;;;2.10;;
41514;SDS011;27247;48.020;16.720;2024-03-17T14:34:28;4.13;;;2.20;;
41514;SDS011;27247;48.020;16.720;2024-03-17T14:38:44;4.97;;;2.10;;
41514;SDS011;27247;48.020;16.720;2024-03-17T14:42:55;3.55;;;1.73;;
41514;SDS011;27247;48.020;16.720;2024-03-17T14:47:05;3.65;;;2.00;;
41514;SDS011;27247;48.020;16.720;2024-03-17T14:51:19;3.08;;;1.85;;
41514;SDS011;27247;48.020;16.720;2024-03-17T14:55:33;3.10;;;1.83;;
41514;SDS011;27247;48.020;16.720;2024-03-17T14:59:43;3.65;;;1.90;;
41514;SDS011;27247;48.020;16.720;2024-03-17T15:03:54;3.20;;;2.27;;
41514;SDS011;27247;48.020;16.720;2024-03-17T15:08:04;4.50;;;1.93;;
41514;SDS011;27247;48.020;16.720;2024-03-17T15:12:15;3.20;;;1.70;;
41514;SDS011;27247;48.020;16.720;2024-03-17T15:16:25;2.90;;;1.90;;
41514;SDS011;27247;48.020;16.720;2024-03-17T15:20:36;4.07;;;1.67;;
41514;SDS011;27247;48.020;16.720;2024-03-17T15:24:46;5.43;;;1.83;;
41514;SDS011;27247;48.020;16.720;2024-03-17T15:28:57;3.55;;;2.00;;
41514;SDS011;27247;48.020;16.720;2024-03-17T15:33:13;3.63;;;2.00;;
41514;SDS011;27247;48.020;16.720;2024-03-17T15:37:23;3.00;;;1.70;;
41514;SDS011;27247;48.020;16.720;2024-03-17T15:41:33;2.63;;;1.30;;
41514;SDS011;27247;48.020;16.720;2024-03-17T15:45:44;3.22;;;1.70;;
41514;SDS011;27247;48.020;16.720;2024-03-17T15:49:54;3.43;;;1.63;;
41514;SDS011;27247;48.020;16.720;2024-03-17T15:54:04;4.77;;;2.53;;
41514;SDS011;27247;48.020;16.720;2024-03-17T15:58:16;4.05;;;2.28;;
41514;SDS011;27247;48.020;16.720;2024-03-17T16:02:27;3.92;;;1.63;;
41514;SDS011;27247;48.020;16.720;2024-03-17T16:06:38;4.18;;;1.75;;
41514;SDS011;27247;48.020;16.720;2024-03-17T16:10:50;3.33;;;1.50;;
41514;SDS011;27247;48.020;16.720;2024-03-17T16:15:02;2.28;;;1.50;;
41514;SDS011;27247;48.020;16.720;2024-03-17T16:19:14;3.58;;;1.55;;
41514;SDS011;27247;48.020;16.720;2024-03-17T16:23:25;5.80;;;1.90;;
41514;SDS011;27247;48.020;16.720;2024-03-17T16:27:39;4.43;;;1.73;;
41514;SDS011;27247;48.020;16.720;2024-03-17T16:31:49;11.70;;;2.50;;
41514;SDS011;27247;48.020;16.720;2024-03-17T16:36:00;5.88;;;1.80;;
41514;SDS011;27247;48.020;16.720;2024-03-17T16:40:10;2.85;;;2.00;;
41514;SDS011;27247;48.020;16.720;2024-03-17T16:48:47;3.50;;;1.65;;
41514;SDS011;27247;48.020;16.720;2024-03-17T16:52:59;5.03;;;1.50;;
41514;SDS011;27247;48.020;16.720;2024-03-17T16:57:10;6.80;;;1.83;;
41514;SDS011;27247;48.020;16.720;2024-03-17T17:01:23;1.95;;;1.52;;
41514;SDS011;27247;48.020;16.720;2024-03-17T17:05:34;5.40;;;1.52;;
41514;SDS011;27247;48.020;16.720;2024-03-17T17:09:45;3.42;;;1.60;;
41514;SDS011;27247;48.020;16.720;2024-03-17T17:13:55;4.53;;;1.63;;
41514;SDS011;27247;48.020;16.720;2024-03-17T17:18:06;3.60;;;2.20;;
41514;SDS011;27247;48.020;16.720;2024-03-17T17:22:17;2.75;;;2.03;;
41514;SDS011;27247;48.020;16.720;2024-03-17T17:26:28;5.63;;;1.90;;
41514;SDS011;27247;48.020;16.720;2024-03-17T17:30:40;3.95;;;1.60;;
41514;SDS011;27247;48.020;16.720;2024-03-17T17:34:51;4.27;;;2.00;;
41514;SDS011;27247;48.020;16.720;2024-03-17T17:39:01;5.00;;;1.85;;
41514;SDS011;27247;48.020;16.720;2024-03-17T17:43:12;3.33;;;1.63;;
41514;SDS011;27247;48.020;16.720;2024-03-17T17:47:22;4.32;;;1.50;;
41514;SDS011;27247;48.020;16.720;2024-03-17T17:51:34;2.80;;;1.40;;
41514;SDS011;27247;48.020;16.720;2024-03-17T17:55:45;3.38;;;1.48;;
41514;SDS011;27247;48.020;16.720;2024-03-17T17:59:56;7.65;;;3.30;;
41514;SDS011;27247;48.020;16.720;2024-03-17T18:04:06;15.83;;;6.03;;
41514;SDS011;27247;48.020;16.720;2024-03-17T18:08:17;5.43;;;2.05;;
41514;SDS011;27247;48.020;16.720;2024-03-17T18:12:29;8.02;;;1.70;;
41514;SDS011;27247;48.020;16.720;2024-03-17T18:16:40;5.25;;;2.00;;
41514;SDS011;27247;48.020;16.720;2024-03-17T18:20:57;5.35;;;2.88;;
41514;SDS011;27247;48.020;16.720;2024-03-17T18:25:11;10.60;;;6.43;;
41514;SDS011;27247;48.020;16.720;2024-03-17T18:29:22;10.73;;;5.60;;
41514;SDS011;27247;48.020;16.720;2024-03-17T18:33:35;9.32;;;5.40;;
41514;SDS011;27247;48.020;16.720;2024-03-17T18:37:47;10.38;;;6.43;;
41514;SDS011;27247;48.020;16.720;2024-03-17T18:41:57;11.37;;;4.80;;
41514;SDS011;27247;48.020;16.720;2024-03-17T18:46:12;9.63;;;5.05;;
41514;SDS011;27247;48.020;16.720;2024-03-17T18:50:24;8.18;;;5.05;;
41514;SDS011;27247;48.020;16.720;2024-03-17T18:54:34;6.57;;;4.15;;
41514;SDS011;27247;48.020;16.720;2024-03-17T18:58:46;3.58;;;2.33;;
41514;SDS011;27247;48.020;16.720;2024-03-17T19:02:58;2.80;;;1.85;;
41514;SDS011;27247;48.020;16.720;2024-03-17T19:07:08;6.50;;;2.92;;
41514;SDS011;27247;48.020;16.720;2024-03-17T19:11:19;3.60;;;2.00;;
41514;SDS011;27247;48.020;16.720;2024-03-17T19:15:30;11.35;;;4.95;;
41514;SDS011;27247;48.020;16.720;2024-03-17T19:19:41;24.48;;;8.52;;
41514;SDS011;27247;48.020;16.720;2024-03-17T19:23:52;21.75;;;10.18;;
41514;SDS011;27247;48.020;16.720;2024-03-17T19:28:03;16.55;;;6.65;;
41514;SDS011;27247;48.020;16.720;2024-03-17T19:32:14;12.18;;;5.47;;
41514;SDS011;27247;48.020;16.720;2024-03-17T19:36:24;9.70;;;4.03;;
41514;SDS011;27247;48.020;16.720;2024-03-17T19:40:35;8.45;;;4.85;;
41514;SDS011;27247;48.020;16.720;2024-03-17T19:44:46;11.55;;;6.30;;
41514;SDS011;27247;48.020;16.720;2024-03-17T19:48:57;9.10;;;5.00;;
41514;SDS011;27247;48.020;16.720;2024-03-17T19:53:08;6.15;;;4.53;;
41514;SDS011;27247;48.020;16.720;2024-03-17T19:57:18;10.85;;;4.05;;
41514;SDS011;27247;48.020;16.720;2024-03-17T20:01:29;8.07;;;4.25;;
41514;SDS011;27247;48.020;16.720;2024-03-17T20:05:39;8.00;;;3.10;;
41514;SDS011;27247;48.020;16.720;2024-03-17T20:09:49;8.47;;;4.10;;
41514;SDS011;27247;48.020;16.720;2024-03-17T20:14:00;12.45;;;4.40;;
41514;SDS011;27247;48.020;16.720;2024-03-17T20:18:12;9.65;;;4.30;;
41514;SDS011;27247;48.020;16.720;2024-03-17T20:22:23;5.60;;;3.50;;
41514;SDS011;27247;48.020;16.720;2024-03-17T20:26:34;6.03;;;3.45;;
41514;SDS011;27247;48.020;16.720;2024-03-17T20:30:47;11.38;;;4.07;;
41514;SDS011;27247;48.020;16.720;2024-03-17T20:34:57;13.07;;;4.82;;
41514;SDS011;27247;48.020;16.720;2024-03-17T20:39:08;12.60;;;5.60;;
41514;SDS011;27247;48.020;16.720;2024-03-17T20:43:19;11.48;;;6.50;;
41514;SDS011;27247;48.020;16.720;2024-03-17T20:47:30;13.52;;;5.15;;
41514;SDS011;27247;48.020;16.720;2024-03-17T20:51:40;24.50;;;12.75;;
41514;SDS011;27247;48.020;16.720;2024-03-17T20:55:51;49.73;;;19.73;;
41514;SDS011;27247;48.020;16.720;2024-03-17T21:00:04;277.38;;;103.18;;
41514;SDS011;27247;48.020;16.720;2024-03-17T21:04:29;136.70;;;53.45;;
41514;SDS011;27247;48.020;16.720;2024-03-17T21:08:39;34.27;;;17.33;;
41514;SDS011;27247;48.020;16.720;2024-03-17T21:12:51;86.63;;;31.98;;
41514;SDS011;27247;48.020;16.720;2024-03-17T21:17:02;99.60;;;33.28;;
41514;SDS011;27247;48.020;16.720;2024-03-17T21:21:13;82.75;;;26.00;;
41514;SDS011;27247;48.020;16.720;2024-03-17T21:25:24;19.30;;;7.28;;
41514;SDS011;27247;48.020;16.720;2024-03-17T21:29:35;20.70;;;7.68;;
41514;SDS011;27247;48.020;16.720;2024-03-17T21:33:45;23.38;;;6.95;;
41514;SDS011;27247;48.020;16.720;2024-03-17T21:37:56;20.57;;;6.30;;
41514;SDS011;27247;48.020;16.720;2024-03-17T21:42:06;18.97;;;7.17;;
41514;SDS011;27247;48.020;16.720;2024-03-17T21:46:16;21.70;;;12.13;;
41514;SDS011;27247;48.020;16.720;2024-03-17T21:50:27;14.90;;;8.38;;
41514;SDS011;27247;48.020;16.720;2024-03-17T21:54:37;15.53;;;8.63;;
41514;SDS011;27247;48.020;16.720;2024-03-17T21:58:48;412.73;;;184.48;;
41514;SDS011;27247;48.020;16.720;2024-03-17T22:02:58;287.55;;;177.95;;
41514;SDS011;27247;48.020;16.720;2024-03-17T22:07:09;94.63;;;45.90;;
41514;SDS011;27247;48.020;16.720;2024-03-17T22:11:20;121.00;;;59.85;;
41514;SDS011;27247;48.020;16.720;2024-03-17T22:15:31;79.53;;;38.78;;
41514;SDS011;27247;48.020;16.720;2024-03-17T22:19:41;44.27;;;21.80;;
41514;SDS011;27247;48.020;16.720;2024-03-17T22:23:52;23.40;;;11.47;;
41514;SDS011;27247;48.020;16.720;2024-03-17T22:28:02;37.47;;;17.23;;
41514;SDS011;27247;48.020;16.720;2024-03-17T22:32:12;32.65;;;15.07;;
41514;SDS011;27247;48.020;16.720;2024-03-17T22:36:23;43.35;;;19.25;;
41514;SDS011;27247;48.020;16.720;2024-03-17T22:40:34;45.45;;;17.42;;
41514;SDS011;27247;48.020;16.720;2024-03-17T22:44:44;147.85;;;59.25;;
41514;SDS011;27247;48.020;16.720;2024-03-17T22:48:55;107.10;;;40.70;;
41514;SDS011;27247;48.020;16.720;2024-03-17T22:53:05;78.47;;;30.37;;
41514;SDS011;27247;48.020;16.720;2024-03-17T22:57:15;44.27;;;24.83;;
41514;SDS011;27247;48.020;16.720;2024-03-17T23:01:26;27.58;;;16.40;;
41514;SDS011;27247;48.020;16.720;2024-03-17T23:05:42;50.33;;;27.00;;
41514;SDS011;27247;48.020;16.720;2024-03-17T23:09:53;11.38;;;7.00;;
41514;SDS011;27247;48.020;16.720;2024-03-17T23:14:03;34.37;;;22.70;;
41514;SDS011;27247;48.020;16.720;2024-03-17T23:18:14;26.73;;;14.82;;
41514;SDS011;27247;48.020;16.720;2024-03-17T23:22:24;27.88;;;16.08;;
41514;SDS011;27247;48.020;16.720;2024-03-17T23:26:35;27.05;;;15.55;;
41514;SDS011;27247;48.020;16.720;2024-03-17T23:30:46;18.35;;;11.75;;
41514;SDS011;27247;48.020;16.720;2024-03-17T23:34:56;11.55;;;7.35;;
41514;SDS011;27247;48.020;16.720;2024-03-17T23:39:07;16.33;;;9.52;;
41514;SDS011;27247;48.020;16.720;2024-03-17T23:43:18;16.05;;;10.68;;
41514;SDS011;27247;48.020;16.720;2024-03-17T23:47:29;12.80;;;8.60;;
41514;SDS011;27247;48.020;16.720;2024-03-17T23:51:39;13.77;;;7.25;;
41514;SDS011;27247;48.020;16.720;2024-03-17T23:55:49;15.13;;;6.23;;
